createdAt,value
2023-04-12T00:02:18.481Z,21.17
2023-04-12T00:07:21.316Z,21.12
2023-04-12T00:12:24.069Z,21.08
2023-04-12T00:17:28.279Z,21.04
2023-04-12T00:22:31.268Z,21.00
2023-04-12T00:27:34.057Z,20.96
2023-04-12T00:32:38.462Z,20.92
2023-04-12T00:37:41.347Z,20.89
2023-04-12T00:42:44.740Z,20.85
2023-04-12T00:47:48.906Z,20.79
2023-04-12T00:52:51.934Z,20.77
2023-04-12T00:57:54.929Z,20.74
2023-04-12T01:03:02.518Z,20.69
2023-04-12T01:08:12.031Z,20.64
2023-04-12T01:13:21.709Z,20.62
2023-04-12T01:18:28.022Z,20.60
2023-04-12T01:23:43.366Z,20.55
2023-04-12T01:28:47.605Z,20.52
2023-04-12T01:33:50.335Z,20.49
2023-04-12T01:38:53.705Z,20.47
2023-04-12T01:43:58.133Z,20.44
2023-04-12T01:49:01.218Z,20.42
2023-04-12T01:54:11.241Z,20.38
2023-04-12T01:59:16.443Z,20.34
2023-04-12T02:04:19.181Z,20.30
2023-04-12T02:09:22.601Z,20.28
2023-04-12T02:14:27.029Z,20.27
2023-04-12T02:19:30.102Z,20.23
2023-04-12T02:24:33.607Z,20.21
2023-04-12T02:29:37.753Z,20.18
2023-04-12T02:34:40.596Z,20.16
2023-04-12T02:39:51.979Z,20.14
2023-04-12T02:44:57.968Z,20.12
2023-04-12T02:50:00.887Z,20.10
2023-04-12T02:55:05.836Z,20.09
2023-04-12T03:00:13.279Z,20.08
2023-04-12T03:05:19.420Z,20.07
2023-04-12T03:10:22.376Z,20.06
2023-04-12T03:15:34.098Z,20.03
2023-04-12T03:20:39.206Z,20.02
2023-04-12T03:25:45.531Z,20.00
2023-04-12T03:31:10.557Z,19.93
2023-04-12T03:36:18.995Z,19.96
2023-04-12T03:41:27.647Z,19.94
2023-04-12T03:46:32.424Z,19.94
2023-04-12T03:51:42.655Z,19.91
2023-04-12T03:56:46.497Z,19.91
2023-04-12T04:01:58.938Z,19.89
2023-04-12T04:07:03.955Z,19.89
2023-04-12T04:12:15.024Z,19.89
2023-04-12T04:17:23.475Z,19.86
2023-04-12T04:22:26.723Z,19.85
2023-04-12T04:27:30.669Z,19.84
2023-04-12T04:32:35.552Z,19.81
2023-04-12T04:37:38.611Z,19.80
2023-04-12T04:42:42.899Z,19.81
2023-04-12T04:47:47.664Z,19.77
2023-04-12T04:52:50.893Z,19.79
2023-04-12T04:57:54.420Z,19.78
2023-04-12T05:02:58.878Z,19.77
2023-04-12T05:08:04.441Z,19.78
2023-04-12T05:13:10.681Z,19.78
2023-04-12T05:18:16.017Z,19.79
2023-04-12T05:23:18.823Z,19.77
2023-04-12T05:28:21.856Z,19.77
2023-04-12T05:33:26.579Z,19.77
2023-04-12T05:38:29.502Z,19.78
2023-04-12T05:43:37.588Z,19.79
2023-04-12T05:48:43.006Z,19.78
2023-04-12T05:53:45.803Z,19.79
2023-04-12T05:58:50.072Z,19.77
2023-04-12T06:03:54.925Z,19.80
2023-04-12T06:09:00.562Z,19.81
2023-04-12T06:14:04.517Z,19.81
2023-04-12T06:19:09.090Z,19.84
2023-04-12T06:24:11.881Z,19.83
2023-04-12T06:29:14.853Z,19.87
2023-04-12T06:34:19.539Z,19.87
2023-04-12T06:39:22.491Z,19.88
2023-04-12T06:44:26.285Z,19.90
2023-04-12T06:49:30.530Z,19.90
2023-04-12T06:54:33.269Z,19.90
2023-04-12T06:59:36.070Z,19.90
2023-04-12T07:04:40.464Z,19.92
2023-04-12T07:09:43.296Z,19.92
2023-04-12T07:14:46.034Z,19.90
2023-04-12T07:19:50.364Z,19.90
2023-04-12T07:24:53.150Z,19.90
2023-04-12T07:29:55.975Z,19.92
2023-04-12T07:35:00.428Z,19.92
2023-04-12T07:40:03.365Z,19.97
2023-04-12T07:45:06.975Z,19.97
2023-04-12T07:50:13.286Z,20.00
2023-04-12T07:55:16.156Z,20.02
2023-04-12T08:00:19.825Z,20.08
2023-04-12T08:05:24.039Z,20.19
2023-04-12T08:10:26.823Z,20.24
2023-04-12T08:15:29.719Z,20.30
2023-04-12T08:20:34.085Z,20.38
2023-04-12T08:25:36.881Z,20.42
2023-04-12T08:30:39.710Z,20.43
2023-04-12T08:35:43.807Z,20.47
2023-04-12T08:40:47.217Z,20.51
2023-04-12T08:45:50.117Z,20.54
2023-04-12T08:50:54.337Z,20.56
2023-04-12T08:55:57.088Z,20.53
2023-04-12T09:00:59.866Z,20.54
2023-04-12T09:06:05.928Z,20.57
2023-04-12T09:11:23.078Z,20.58
2023-04-12T09:16:36.019Z,20.56
2023-04-12T09:21:52.382Z,20.60
2023-04-12T09:27:03.618Z,20.58
2023-04-12T09:32:07.124Z,20.60
2023-04-12T09:37:17.750Z,20.61
2023-04-12T09:47:38.170Z,20.62
2023-04-12T09:52:42.325Z,20.27
2023-04-12T09:57:45.685Z,19.80
2023-04-12T10:02:51.236Z,19.56
2023-04-12T10:07:56.603Z,19.47
2023-04-12T10:13:00.262Z,19.33
2023-04-12T10:18:03.079Z,19.32
2023-04-12T10:23:07.351Z,19.36
2023-04-12T10:28:17.268Z,19.29
2023-04-12T10:33:20.779Z,19.21
2023-04-12T10:38:27.153Z,19.04
2023-04-12T10:43:30.134Z,19.01
2023-04-12T10:48:33.617Z,18.94
2023-04-12T10:53:37.734Z,18.87
2023-04-12T10:58:58.877Z,18.64
2023-04-12T11:04:09.311Z,18.75
2023-04-12T11:09:21.863Z,18.83
2023-04-12T11:14:28.638Z,19.11
2023-04-12T11:19:31.898Z,19.28
2023-04-12T11:24:38.551Z,19.50
2023-04-12T11:29:41.386Z,19.66
2023-04-12T11:34:46.883Z,19.78
2023-04-12T11:39:52.682Z,19.90
2023-04-12T11:45:00.289Z,20.00
2023-04-12T11:50:05.110Z,20.07
2023-04-12T11:55:11.380Z,20.14
2023-04-12T12:00:15.338Z,20.17
2023-04-12T12:05:18.372Z,20.19
2023-04-12T12:10:37.781Z,20.20
2023-04-12T12:15:46.114Z,20.23
2023-04-12T12:20:49.884Z,20.23
2023-04-12T12:26:02.970Z,20.23
2023-04-12T12:31:13.282Z,20.25
2023-04-12T12:36:19.651Z,20.25
2023-04-12T12:41:24.559Z,20.22
2023-04-12T12:46:37.386Z,20.29
2023-04-12T12:51:51.185Z,20.37
2023-04-12T12:56:55.468Z,20.41
2023-04-12T13:01:58.368Z,20.37
2023-04-12T13:07:01.294Z,20.38
2023-04-12T13:12:07.632Z,20.45
2023-04-12T13:17:11.862Z,20.49
2023-04-12T13:22:14.768Z,20.50
2023-04-12T13:27:18.969Z,20.48
2023-04-12T13:32:21.973Z,20.43
2023-04-12T13:37:25.187Z,20.40
2023-04-12T13:42:29.711Z,20.45
2023-04-12T13:47:33.746Z,20.49
2023-04-12T13:52:36.864Z,20.51
2023-04-12T13:57:41.113Z,20.52
2023-04-12T14:02:44.193Z,20.47
2023-04-12T14:07:47.966Z,20.48
2023-04-12T14:12:52.169Z,20.50
2023-04-12T14:17:56.121Z,20.51
2023-04-12T14:23:01.218Z,20.57
2023-04-12T14:28:05.657Z,20.54
2023-04-12T14:33:08.725Z,20.49
2023-04-12T14:38:12.652Z,20.45
2023-04-12T14:43:17.123Z,20.49
2023-04-12T14:48:21.092Z,20.45
2023-04-12T14:53:23.923Z,20.42
2023-04-12T14:58:29.444Z,20.41
2023-04-12T15:03:34.050Z,20.37
2023-04-12T15:08:41.635Z,20.38
2023-04-12T15:13:45.802Z,20.38
2023-04-12T15:18:50.248Z,20.41
2023-04-12T15:23:53.124Z,20.36
2023-04-12T15:28:57.240Z,20.39
2023-04-12T15:34:00.457Z,20.41
2023-04-12T15:39:04.652Z,20.36
2023-04-12T15:44:09.849Z,20.38
2023-04-12T15:49:12.764Z,20.32
2023-04-12T15:54:16.142Z,20.26
2023-04-12T15:59:20.320Z,20.25
2023-04-12T16:04:23.193Z,20.21
2023-04-12T16:09:26.424Z,20.22
2023-04-12T16:14:30.814Z,20.25
2023-04-12T16:19:33.563Z,20.27
2023-04-12T16:24:37.366Z,20.26
2023-04-12T16:29:41.573Z,20.77
2023-04-12T16:34:44.572Z,20.78
2023-04-12T16:39:47.613Z,20.77
2023-04-12T16:44:52.050Z,20.69
2023-04-12T16:49:54.888Z,20.59
2023-04-12T16:54:58.386Z,20.49
2023-04-12T17:00:04.349Z,20.47
2023-04-12T17:05:08.417Z,20.34
2023-04-12T17:10:11.360Z,20.27
2023-04-12T17:15:16.385Z,20.22
2023-04-12T17:20:19.880Z,20.23
2023-04-12T17:25:22.944Z,20.23
2023-04-12T17:30:30.929Z,20.34
2023-04-12T17:35:33.963Z,20.40
2023-04-12T17:40:37.586Z,20.42
2023-04-12T17:45:41.911Z,20.49
2023-04-12T17:50:45.723Z,20.54
2023-04-12T17:55:50.594Z,20.58
2023-04-12T18:00:54.987Z,20.63
2023-04-12T18:05:59.296Z,20.66
2023-04-12T18:11:03.965Z,20.69
2023-04-12T18:16:08.422Z,20.74
2023-04-12T18:21:11.386Z,20.78
2023-04-12T18:26:14.240Z,20.75
2023-04-12T18:31:18.921Z,20.79
2023-04-12T18:36:21.924Z,20.83
2023-04-12T18:41:24.983Z,20.86
2023-04-12T18:46:29.632Z,20.89
2023-04-12T18:51:33.812Z,20.94
2023-04-12T18:56:36.641Z,20.95
2023-04-12T19:01:41.045Z,20.99
2023-04-12T19:06:45.101Z,20.99
2023-04-12T19:11:47.999Z,21.02
2023-04-12T19:16:52.992Z,21.04
2023-04-12T19:21:55.901Z,21.11
2023-04-12T19:26:58.703Z,21.11
2023-04-12T19:32:05.366Z,21.15
2023-04-12T19:37:08.278Z,21.19
2023-04-12T19:42:11.851Z,21.18
2023-04-12T19:47:16.085Z,21.23
2023-04-12T19:52:21.785Z,21.24
2023-04-12T19:57:25.060Z,21.27
2023-04-12T20:02:29.421Z,21.30
2023-04-12T20:07:32.331Z,21.32
2023-04-12T20:12:35.266Z,21.32
2023-04-12T20:17:41.167Z,21.37
2023-04-12T20:22:45.828Z,21.41
2023-04-12T20:27:52.430Z,21.41
2023-04-12T20:32:57.207Z,21.48
2023-04-12T20:38:00.290Z,21.52
2023-04-12T20:43:03.446Z,21.48
2023-04-12T20:48:07.685Z,21.53
2023-04-12T20:53:15.033Z,21.53
2023-04-12T20:58:19.063Z,21.55
2023-04-12T21:03:23.265Z,21.60
2023-04-12T21:08:26.122Z,21.62
2023-04-12T21:13:28.973Z,21.62
2023-04-12T21:18:34.208Z,21.63
2023-04-12T21:23:37.543Z,21.65
2023-04-12T21:28:40.944Z,21.66
2023-04-12T21:33:45.058Z,21.67
2023-04-12T21:43:52.122Z,21.74
2023-04-12T21:48:56.406Z,21.75
2023-04-12T21:53:59.293Z,21.76
2023-04-12T21:59:02.485Z,21.77
2023-04-12T22:04:07.776Z,21.76
2023-04-12T22:09:10.605Z,21.74
2023-04-12T22:14:13.755Z,21.74
2023-04-12T22:19:18.784Z,21.73
2023-04-12T22:24:21.538Z,21.72
2023-04-12T22:29:25.368Z,21.70
2023-04-12T22:34:29.578Z,21.65
2023-04-12T22:39:32.522Z,21.64
2023-04-12T22:44:38.211Z,21.57
2023-04-12T22:49:50.185Z,21.60
2023-04-12T22:54:53.049Z,21.55
2023-04-12T22:59:55.814Z,21.53
2023-04-12T23:05:00.026Z,21.52
2023-04-12T23:10:03.108Z,21.50
2023-04-12T23:15:06.668Z,21.47
2023-04-12T23:20:13.302Z,21.46
2023-04-12T23:25:16.419Z,21.41
2023-04-12T23:30:20.151Z,21.36
2023-04-12T23:35:24.306Z,21.34
2023-04-12T23:40:27.140Z,21.31
2023-04-12T23:45:29.896Z,21.25
2023-04-12T23:50:34.005Z,21.21
2023-04-12T23:55:36.885Z,21.14
